Terminal Aerodrome Forecast
Issued by NWS Cleveland, OH

Home | Current Version | Previous Version | Text Only | Print | Product List | Glossary On
Versions: 1 2 3 4 5 6 7 8 9 10 11 12 13 14 15 16 17 18 19 20 21
000
FTUS41 KCLE 211700
TAFTOL
TAF
KTOL 211732Z 2118/2218 23008KT P6SM VCSH BKN040 BKN120
      TEMPO 2118/2121 5SM -TSRA BR BKN025CB BKN050
     FM220200 23005KT 5SM BR VCTS BKN035CB OVC080
      TEMPO 2208/2212 1SM +TSRA BR BKN015CB OVC025
     FM221200 24007KT 6SM BR VCSH BKN030=

USA.gov is the U.S. government's official web portal to all federal, state and local government web resources and services.